Time;durP1;ratioP1;P1;durP2;ratioP2;P2;SDS_P1;SDS_P2;PMS_P1;PMS_P2;Temp;Humidity;BMP_temperature;BMP_pressure;BME280_temperature;BME280_humidity;BME280_pressure;Samples;Min_cycle;Max_cycle;Signal;HPM_P1;HPM_P2
2024/04/03 00:00:29;;;;;;;;;;;13.80;99.90;;;;;;5077411;28;19915;-51
2024/04/03 00:02:54;;;;;;;;;;;13.70;99.90;;;;;;5080080;28;19999;-50
2024/04/03 00:05:20;;;;;;;;;;;13.80;99.90;;;;;;5079992;28;19951;-52
2024/04/03 00:07:45;;;;;;;;;;;13.80;99.90;;;;;;5080594;28;19912;-49
2024/04/03 00:10:11;;;;;;;;;;;13.80;99.90;;;;;;5078957;28;19923;-48
2024/04/03 00:12:37;;;;;;;;;;;13.80;99.90;;;;;;5081750;28;19912;-48
2024/04/03 00:15:02;;;;;;;;;;;13.80;99.90;;;;;;5080270;28;19916;-50
2024/04/03 00:17:28;;;;;;;;;;;13.70;99.90;;;;;;5076049;28;19916;-49
2024/04/03 00:19:53;;;;;;;;;;;13.80;99.90;;;;;;5078567;28;19908;-49
2024/04/03 00:22:19;;;;;;;;;;;13.70;99.90;;;;;;5080458;28;20379;-49
2024/04/03 00:24:44;;;;;;;;;;;13.70;99.90;;;;;;5077525;28;19908;-49
2024/04/03 00:27:10;;;;;;;;;;;13.70;99.90;;;;;;5077945;28;19916;-49
2024/04/03 00:29:35;;;;;;;;;;;13.70;99.90;;;;;;5079928;28;19913;-49
2024/04/03 00:32:01;;;;;;;;;;;13.70;99.90;;;;;;5077593;28;20322;-48
2024/04/03 00:34:27;;;;;;;;;;;13.80;99.90;;;;;;5078880;28;19914;-50
2024/04/03 00:36:53;;;;;;;;;;;13.80;99.90;;;;;;5077560;28;19991;-49
2024/04/03 00:39:19;;;;;;;;;;;13.70;99.90;;;;;;5079332;28;19913;-50
2024/04/03 00:41:44;;;;;;;;;;;13.80;99.90;;;;;;5076910;28;19957;-49
2024/04/03 00:44:10;;;;;;;;;;;13.70;99.90;;;;;;5077577;28;19908;-49
2024/04/03 00:46:35;;;;;;;;;;;13.80;99.90;;;;;;5078971;28;19913;-48
2024/04/03 00:49:02;;;;;;;;;;;13.70;99.90;;;;;;5077502;28;20393;-49
2024/04/03 00:51:28;;;;;;;;;;;13.80;99.90;;;;;;5077616;28;19908;-48
2024/04/03 00:53:53;;;;;;;;;;;13.70;99.90;;;;;;5080833;28;19909;-50
2024/04/03 00:56:20;;;;;;;;;;;13.70;99.90;;;;;;5076847;28;19913;-48
2024/04/03 00:58:45;;;;;;;;;;;13.70;99.90;;;;;;5077974;28;19915;-49
2024/04/03 01:01:13;;;;;;;;;;;13.70;99.90;;;;;;5078076;28;19908;-50
2024/04/03 01:03:38;;;;;;;;;;;13.80;99.90;;;;;;5079041;28;19909;-49
2024/04/03 01:06:04;;;;;;;;;;;13.70;99.90;;;;;;5076285;28;19953;-49
2024/04/03 01:08:30;;;;;;;;;;;13.70;99.90;;;;;;5075636;28;19969;-49
2024/04/03 01:10:57;;;;;;;;;;;13.70;99.90;;;;;;5074982;28;19957;-49
2024/04/03 01:13:22;;;;;;;;;;;13.80;99.90;;;;;;5075445;28;19916;-49
2024/04/03 01:15:52;;;;;;;;;;;13.80;99.90;;;;;;5075459;28;19909;-49
2024/04/03 01:18:17;;;;;;;;;;;13.80;99.90;;;;;;5010229;28;1851979;-52
2024/04/03 01:20:43;;;;;;;;;;;13.80;99.90;;;;;;5077155;28;19924;-52
2024/04/03 01:23:08;;;;;;;;;;;13.80;99.90;;;;;;5078704;28;19920;-51
2024/04/03 01:25:34;;;;;;;;;;;13.70;99.90;;;;;;5078483;28;19916;-53
2024/04/03 01:27:59;;;;;;;;;;;13.70;99.90;;;;;;5074719;28;19912;-53
2024/04/03 01:30:25;;;;;;;;;;;13.80;99.90;;;;;;5078651;28;19912;-53
2024/04/03 01:32:50;;;;;;;;;;;13.80;99.90;;;;;;5077849;28;19912;-52
2024/04/03 01:35:16;;;;;;;;;;;13.80;99.90;;;;;;5076711;28;19973;-53
2024/04/03 01:37:41;;;;;;;;;;;13.80;99.90;;;;;;5077290;28;19908;-54
2024/04/03 01:40:07;;;;;;;;;;;13.80;99.90;;;;;;5079450;28;19908;-50
2024/04/03 01:42:33;;;;;;;;;;;13.80;99.90;;;;;;5074765;28;19913;-51
2024/04/03 01:44:58;;;;;;;;;;;13.80;99.90;;;;;;5076052;28;20003;-50
2024/04/03 01:47:24;;;;;;;;;;;13.80;99.90;;;;;;5075543;28;20283;-53
2024/04/03 01:49:53;;;;;;;;;;;13.80;99.90;;;;;;5076279;28;19917;-51
2024/04/03 01:52:19;;;;;;;;;;;13.80;99.90;;;;;;5074284;28;19916;-50
2024/04/03 01:54:45;;;;;;;;;;;13.80;99.90;;;;;;5074084;28;19938;-52
2024/04/03 01:57:10;;;;;;;;;;;13.80;99.90;;;;;;5079295;28;19912;-51
2024/04/03 01:59:36;;;;;;;;;;;13.80;99.90;;;;;;5077493;28;19909;-53
2024/04/03 02:02:01;;;;;;;;;;;13.80;99.90;;;;;;5074000;28;19919;-52
2024/04/03 02:04:27;;;;;;;;;;;13.80;99.90;;;;;;5075961;28;19909;-53
2024/04/03 02:06:52;;;;;;;;;;;13.80;99.90;;;;;;5078561;28;19912;-52
2024/04/03 02:09:18;;;;;;;;;;;13.80;99.90;;;;;;5073270;28;19912;-53
2024/04/03 02:11:43;;;;;;;;;;;13.80;99.90;;;;;;5073563;28;20275;-49
2024/04/03 02:14:12;;;;;;;;;;;13.80;99.90;;;;;;5075381;28;20290;-51
2024/04/03 02:16:42;;;;;;;;;;;13.80;99.90;;;;;;5076168;28;20027;-52
2024/04/03 02:19:08;;;;;;;;;;;13.80;99.90;;;;;;5073500;28;19970;-51
2024/04/03 02:21:35;;;;;;;;;;;13.80;99.90;;;;;;5076489;28;19908;-53
2024/04/03 02:24:01;;;;;;;;;;;13.80;99.90;;;;;;5078609;28;19908;-52
2024/04/03 02:26:27;;;;;;;;;;;13.80;99.90;;;;;;5070724;28;19919;-53
2024/04/03 02:28:52;;;;;;;;;;;13.90;99.90;;;;;;5076475;28;19931;-51
2024/04/03 02:31:17;;;;;;;;;;;13.90;99.90;;;;;;5076326;28;19913;-49
2024/04/03 02:33:44;;;;;;;;;;;13.90;99.90;;;;;;5074545;28;19912;-49
2024/04/03 02:36:10;;;;;;;;;;;13.90;99.90;;;;;;5075708;28;20363;-48
2024/04/03 02:38:35;;;;;;;;;;;13.90;99.90;;;;;;5075664;28;19931;-48
2024/04/03 02:41:01;;;;;;;;;;;13.90;99.90;;;;;;5076650;28;19969;-50
2024/04/03 02:43:26;;;;;;;;;;;13.80;99.90;;;;;;5074118;28;19939;-49
2024/04/03 02:45:55;;;;;;;;;;;13.80;99.90;;;;;;5075070;28;19938;-49
2024/04/03 02:48:21;;;;;;;;;;;13.90;99.90;;;;;;5076594;28;19913;-48
2024/04/03 02:50:49;;;;;;;;;;;13.80;99.90;;;;;;5072833;28;19919;-49
2024/04/03 02:53:15;;;;;;;;;;;13.80;99.90;;;;;;5075400;28;19908;-49
2024/04/03 02:55:41;;;;;;;;;;;13.80;99.90;;;;;;5086648;28;19919;-49
2024/04/03 02:58:07;;;;;;;;;;;13.80;99.90;;;;;;5075333;28;19912;-49
2024/04/03 03:00:32;;;;;;;;;;;13.80;99.90;;;;;;5074969;28;19951;-48
2024/04/03 03:02:58;;;;;;;;;;;13.90;99.90;;;;;;5082447;28;19908;-48
2024/04/03 03:05:23;;;;;;;;;;;13.80;99.90;;;;;;5079544;28;20034;-49
2024/04/03 03:07:49;;;;;;;;;;;13.90;99.90;;;;;;5081669;28;20006;-49
2024/04/03 03:10:14;;;;;;;;;;;13.90;99.90;;;;;;5079498;28;19951;-49
2024/04/03 03:12:40;;;;;;;;;;;13.90;99.90;;;;;;5078882;28;19995;-51
2024/04/03 03:15:05;;;;;;;;;;;13.90;99.90;;;;;;5073414;28;19919;-49
2024/04/03 03:17:31;;;;;;;;;;;13.90;99.90;;;;;;5083058;28;19916;-49
2024/04/03 03:19:56;;;;;;;;;;;13.90;99.90;;;;;;5079690;28;19916;-49
2024/04/03 03:22:22;;;;;;;;;;;13.90;99.90;;;;;;5084556;28;19908;-50
2024/04/03 03:24:48;;;;;;;;;;;13.90;99.90;;;;;;5083370;28;19908;-50
2024/04/03 03:27:13;;;;;;;;;;;13.90;99.90;;;;;;5086628;28;19962;-49
2024/04/03 03:29:39;;;;;;;;;;;13.90;99.90;;;;;;5084778;28;19913;-49
2024/04/03 03:32:04;;;;;;;;;;;13.90;99.90;;;;;;5086239;28;19909;-49
2024/04/03 03:34:30;;;;;;;;;;;13.90;99.90;;;;;;5085047;28;20283;-50
2024/04/03 03:36:55;;;;;;;;;;;13.90;99.90;;;;;;5087238;28;21338;-49
2024/04/03 03:39:21;;;;;;;;;;;13.90;99.90;;;;;;5085474;28;20431;-50
2024/04/03 03:41:46;;;;;;;;;;;13.90;99.90;;;;;;5088707;28;19949;-53
2024/04/03 03:44:12;;;;;;;;;;;13.90;99.90;;;;;;5086185;28;19915;-53
2024/04/03 03:46:37;;;;;;;;;;;13.90;99.90;;;;;;5089711;28;19908;-54
2024/04/03 03:54:31;;;;;;;;;;;13.90;99.90;;;;;;5089652;28;19915;-54
2024/04/03 03:56:57;;;;;;;;;;;13.90;99.90;;;;;;5087542;28;20303;-53
2024/04/03 03:59:22;;;;;;;;;;;13.90;99.90;;;;;;5089831;28;20389;-53
2024/04/03 04:01:48;;;;;;;;;;;13.90;99.90;;;;;;5088228;28;19919;-54
2024/04/03 04:04:13;;;;;;;;;;;13.90;99.90;;;;;;5089574;28;19913;-53
2024/04/03 04:06:39;;;;;;;;;;;13.90;99.90;;;;;;5086167;28;19915;-52
2024/04/03 04:09:04;;;;;;;;;;;13.90;99.90;;;;;;5090896;28;19908;-53
2024/04/03 04:11:30;;;;;;;;;;;13.90;99.90;;;;;;5090444;28;19908;-53
2024/04/03 04:13:56;;;;;;;;;;;13.90;99.90;;;;;;5074447;28;19977;-53
2024/04/03 04:16:22;;;;;;;;;;;13.90;99.90;;;;;;5093626;28;19912;-53
2024/04/03 04:18:48;;;;;;;;;;;13.90;99.90;;;;;;5095729;28;20298;-54
2024/04/03 04:21:15;;;;;;;;;;;13.90;99.90;;;;;;5095871;28;19908;-53
2024/04/03 04:23:40;;;;;;;;;;;13.90;99.90;;;;;;5097735;28;19908;-53
2024/04/03 04:26:06;;;;;;;;;;;13.90;99.90;;;;;;5084910;28;19958;-52
2024/04/03 04:28:32;;;;;;;;;;;13.90;99.90;;;;;;5097720;28;19912;-54
2024/04/03 04:31:04;;;;;;;;;;;13.90;99.90;;;;;;5095246;28;19908;-54
2024/04/03 04:33:30;;;;;;;;;;;13.90;99.90;;;;;;5067327;28;19912;-53
2024/04/03 04:35:56;;;;;;;;;;;13.90;99.90;;;;;;5073641;28;19908;-53
2024/04/03 04:38:22;;;;;;;;;;;13.90;99.90;;;;;;5069111;28;19919;-50
2024/04/03 04:40:54;;;;;;;;;;;13.90;99.90;;;;;;5078887;28;20375;-50
2024/04/03 04:43:20;;;;;;;;;;;13.90;99.90;;;;;;5078548;28;19995;-50
2024/04/03 04:45:45;;;;;;;;;;;13.90;99.90;;;;;;5080357;28;19971;-51
2024/04/03 04:48:11;;;;;;;;;;;13.90;99.90;;;;;;5077377;28;19917;-49
2024/04/03 04:50:36;;;;;;;;;;;13.90;99.90;;;;;;5077854;28;19918;-49
2024/04/03 04:53:03;;;;;;;;;;;13.90;99.90;;;;;;5079112;28;19908;-49
2024/04/03 04:55:29;;;;;;;;;;;13.90;99.90;;;;;;5077746;28;19930;-51
2024/04/03 04:57:54;;;;;;;;;;;13.90;99.90;;;;;;5077129;28;20318;-49
2024/04/03 05:00:20;;;;;;;;;;;13.90;99.90;;;;;;5077740;28;19996;-51
2024/04/03 05:02:45;;;;;;;;;;;13.90;99.90;;;;;;5078543;28;19919;-52
2024/04/03 05:05:11;;;;;;;;;;;13.90;99.90;;;;;;5078120;28;19909;-51
2024/04/03 05:07:36;;;;;;;;;;;13.90;99.90;;;;;;5065890;28;19959;-50
2024/04/03 05:10:03;;;;;;;;;;;13.90;99.90;;;;;;5079206;28;20368;-50
2024/04/03 05:12:29;;;;;;;;;;;13.90;99.90;;;;;;5074520;28;19916;-52
2024/04/03 05:14:54;;;;;;;;;;;13.90;99.90;;;;;;5075071;28;19908;-53
2024/04/03 05:17:20;;;;;;;;;;;13.90;99.90;;;;;;5084960;28;19912;-50
2024/04/03 05:19:45;;;;;;;;;;;13.90;99.90;;;;;;5074948;28;19912;-50
2024/04/03 05:22:14;;;;;;;;;;;13.90;99.90;;;;;;5071958;28;19912;-49
2024/04/03 05:24:40;;;;;;;;;;;13.90;99.90;;;;;;5072680;28;19963;-50
2024/04/03 05:27:05;;;;;;;;;;;14.00;99.90;;;;;;5069042;28;19925;-51
2024/04/03 05:29:30;;;;;;;;;;;14.00;99.90;;;;;;5062069;28;19912;-50
2024/04/03 05:31:56;;;;;;;;;;;13.90;99.90;;;;;;5067357;28;19925;-50
2024/04/03 05:34:21;;;;;;;;;;;14.00;99.90;;;;;;5065252;28;19920;-51
2024/04/03 05:36:47;;;;;;;;;;;14.00;99.90;;;;;;5063777;28;19917;-53
2024/04/03 05:39:12;;;;;;;;;;;13.90;99.90;;;;;;5076206;28;19915;-50
2024/04/03 05:41:38;;;;;;;;;;;13.90;99.90;;;;;;5072291;28;19908;-51
2024/04/03 05:44:03;;;;;;;;;;;13.90;99.90;;;;;;5072669;28;19912;-50
2024/04/03 05:46:29;;;;;;;;;;;13.90;99.90;;;;;;5073862;28;19970;-52
2024/04/03 05:48:54;;;;;;;;;;;13.90;99.90;;;;;;5070009;28;19915;-49
2024/04/03 05:51:20;;;;;;;;;;;13.90;99.90;;;;;;5069144;28;19909;-50
2024/04/03 05:53:45;;;;;;;;;;;13.90;99.90;;;;;;5068350;28;20227;-50
2024/04/03 05:56:11;;;;;;;;;;;13.90;99.90;;;;;;5071943;28;20366;-50
2024/04/03 05:58:37;;;;;;;;;;;13.90;99.90;;;;;;5071162;28;19916;-50
2024/04/03 06:01:03;;;;;;;;;;;13.90;99.90;;;;;;5068863;28;19919;-50
2024/04/03 06:03:29;;;;;;;;;;;13.90;99.90;;;;;;5069043;28;19909;-51
2024/04/03 06:05:58;;;;;;;;;;;14.00;99.90;;;;;;5072101;28;19920;-49
2024/04/03 06:08:24;;;;;;;;;;;14.00;99.90;;;;;;5074274;28;19913;-49
2024/04/03 06:10:50;;;;;;;;;;;13.90;99.90;;;;;;5072569;28;19916;-53
2024/04/03 06:13:16;;;;;;;;;;;14.00;99.90;;;;;;5076411;28;19924;-49
2024/04/03 06:15:41;;;;;;;;;;;14.00;99.90;;;;;;5074563;28;19916;-49
2024/04/03 06:18:07;;;;;;;;;;;14.00;99.90;;;;;;5074113;28;19920;-50
2024/04/03 06:20:33;;;;;;;;;;;13.90;99.90;;;;;;5074752;28;19908;-49
2024/04/03 06:22:59;;;;;;;;;;;13.90;99.90;;;;;;5074536;28;19912;-52
2024/04/03 06:25:24;;;;;;;;;;;13.90;99.90;;;;;;5076850;28;19915;-50
2024/04/03 06:27:50;;;;;;;;;;;13.90;99.90;;;;;;5073999;28;19917;-53
2024/04/03 06:30:15;;;;;;;;;;;13.90;99.90;;;;;;5074580;28;19909;-54
2024/04/03 06:32:42;;;;;;;;;;;13.90;99.90;;;;;;5075225;28;19917;-53
2024/04/03 06:35:08;;;;;;;;;;;13.90;99.90;;;;;;5075093;28;19923;-52
2024/04/03 06:37:33;;;;;;;;;;;13.90;99.90;;;;;;5074923;28;19919;-53
2024/04/03 06:39:59;;;;;;;;;;;13.90;99.90;;;;;;5075908;28;19917;-53
2024/04/03 06:42:24;;;;;;;;;;;13.90;99.90;;;;;;5071924;28;19920;-50
2024/04/03 06:44:50;;;;;;;;;;;13.90;99.90;;;;;;5067323;28;19920;-53
2024/04/03 06:47:16;;;;;;;;;;;13.90;99.90;;;;;;5068364;28;19920;-53
2024/04/03 06:49:42;;;;;;;;;;;13.90;99.90;;;;;;5077745;28;19997;-52
2024/04/03 06:52:08;;;;;;;;;;;13.90;99.90;;;;;;5074178;28;19909;-52
2024/04/03 06:54:33;;;;;;;;;;;13.90;99.90;;;;;;5076744;28;19962;-54
2024/04/03 06:56:59;;;;;;;;;;;13.90;99.90;;;;;;5071821;28;19920;-52
2024/04/03 06:59:24;;;;;;;;;;;13.90;99.90;;;;;;5072061;28;19955;-53
2024/04/03 07:01:50;;;;;;;;;;;13.80;99.90;;;;;;5070496;28;20007;-53
2024/04/03 07:04:15;;;;;;;;;;;13.80;99.90;;;;;;5066664;28;19912;-53
2024/04/03 07:06:41;;;;;;;;;;;13.80;99.90;;;;;;5067020;28;19916;-54
2024/04/03 07:09:07;;;;;;;;;;;13.80;99.90;;;;;;5071061;28;19919;-48
2024/04/03 07:11:33;;;;;;;;;;;13.80;99.90;;;;;;5068630;28;19909;-49
2024/04/03 07:13:58;;;;;;;;;;;13.90;99.90;;;;;;5065270;28;19917;-50
2024/04/03 07:16:24;;;;;;;;;;;13.90;99.90;;;;;;5068453;28;19983;-50
2024/04/03 07:18:56;;;;;;;;;;;13.90;99.90;;;;;;5069593;28;19924;-50
2024/04/03 07:21:21;;;;;;;;;;;13.90;99.90;;;;;;5066783;28;20371;-50
2024/04/03 07:23:47;;;;;;;;;;;13.90;99.90;;;;;;5064361;28;19921;-50
2024/04/03 07:26:13;;;;;;;;;;;13.90;99.90;;;;;;5067538;28;19931;-49
2024/04/03 07:28:40;;;;;;;;;;;13.90;99.90;;;;;;5065675;28;19921;-50
2024/04/03 07:31:06;;;;;;;;;;;13.90;99.90;;;;;;5067640;28;19913;-50
2024/04/03 07:33:32;;;;;;;;;;;13.90;99.90;;;;;;5073389;28;19923;-49
2024/04/03 07:35:57;;;;;;;;;;;13.90;99.90;;;;;;5068620;28;19961;-49
2024/04/03 07:38:23;;;;;;;;;;;13.90;99.90;;;;;;5065919;28;19912;-51
2024/04/03 07:40:50;;;;;;;;;;;13.90;99.90;;;;;;5064445;28;19920;-49
2024/04/03 07:43:16;;;;;;;;;;;13.90;99.90;;;;;;5065790;28;19917;-49
2024/04/03 07:45:41;;;;;;;;;;;13.90;99.90;;;;;;5065573;28;19916;-53
2024/04/03 07:48:07;;;;;;;;;;;13.90;99.90;;;;;;5069921;28;19932;-50
2024/04/03 07:50:33;;;;;;;;;;;13.90;99.90;;;;;;5073449;28;19966;-49
2024/04/03 07:52:58;;;;;;;;;;;13.90;99.90;;;;;;5072001;28;20371;-49
2024/04/03 07:55:24;;;;;;;;;;;13.90;99.90;;;;;;5066980;28;19919;-49
2024/04/03 07:57:49;;;;;;;;;;;13.90;99.90;;;;;;5070345;28;20161;-50
2024/04/03 08:00:15;;;;;;;;;;;13.90;99.90;;;;;;5070353;28;20007;-49
2024/04/03 08:02:41;;;;;;;;;;;13.90;99.90;;;;;;5068929;28;20003;-49
2024/04/03 08:05:16;;;;;;;;;;;13.90;99.90;;;;;;5068822;28;20000;-49
2024/04/03 08:07:44;;;;;;;;;;;13.90;99.90;;;;;;5071055;28;20391;-50
2024/04/03 08:10:10;;;;;;;;;;;13.90;99.90;;;;;;5071051;28;20206;-49
2024/04/03 08:12:37;;;;;;;;;;;13.90;99.90;;;;;;5068986;28;20268;-49
2024/04/03 08:15:02;;;;;;;;;;;13.90;99.90;;;;;;5066944;28;20409;-50
2024/04/03 08:17:28;;;;;;;;;;;13.90;99.90;;;;;;5067344;28;19920;-50
2024/04/03 08:19:54;;;;;;;;;;;13.90;99.90;;;;;;5071037;28;19915;-50
2024/04/03 08:22:20;;;;;;;;;;;13.90;99.90;;;;;;5071214;28;19908;-49
2024/04/03 08:24:46;;;;;;;;;;;14.00;99.90;;;;;;5067603;28;20007;-50
2024/04/03 08:27:12;;;;;;;;;;;14.00;99.90;;;;;;5072629;28;19966;-50
2024/04/03 08:29:39;;;;;;;;;;;14.00;99.90;;;;;;5067693;28;19924;-50
2024/04/03 08:32:05;;;;;;;;;;;14.00;99.90;;;;;;5066662;28;19915;-50
2024/04/03 08:34:31;;;;;;;;;;;14.00;99.90;;;;;;5071503;28;20348;-50
2024/04/03 08:36:56;;;;;;;;;;;14.00;99.90;;;;;;5069087;28;19913;-50
2024/04/03 08:39:22;;;;;;;;;;;14.00;99.90;;;;;;5068774;28;20358;-49
2024/04/03 08:41:50;;;;;;;;;;;14.00;99.90;;;;;;5067013;28;19913;-49
2024/04/03 08:44:17;;;;;;;;;;;14.00;99.90;;;;;;5075969;28;19920;-49
2024/04/03 08:46:43;;;;;;;;;;;14.00;99.90;;;;;;5076029;28;19908;-48
2024/04/03 08:49:09;;;;;;;;;;;14.00;99.90;;;;;;5075821;28;20394;-49
2024/04/03 08:51:36;;;;;;;;;;;14.00;99.90;;;;;;5075991;28;19912;-49
2024/04/03 08:54:05;;;;;;;;;;;14.00;99.90;;;;;;5070791;28;19939;-50
2024/04/03 08:56:31;;;;;;;;;;;14.00;99.90;;;;;;5063739;28;19916;-49
2024/04/03 08:59:00;;;;;;;;;;;14.00;99.90;;;;;;5063191;28;20396;-50
2024/04/03 09:01:26;;;;;;;;;;;14.00;99.90;;;;;;5062318;28;19986;-49
2024/04/03 09:03:51;;;;;;;;;;;13.90;99.90;;;;;;5062226;28;19908;-50
2024/04/03 09:06:17;;;;;;;;;;;14.00;99.90;;;;;;5065381;28;19956;-50
2024/04/03 09:08:43;;;;;;;;;;;14.00;99.90;;;;;;5061807;28;20010;-49
2024/04/03 09:11:08;;;;;;;;;;;14.00;99.90;;;;;;5066541;28;19915;-50
2024/04/03 09:13:35;;;;;;;;;;;14.00;99.90;;;;;;5069212;28;19992;-49
2024/04/03 09:16:01;;;;;;;;;;;14.00;99.90;;;;;;5072767;28;19913;-48
2024/04/03 09:18:27;;;;;;;;;;;14.00;99.90;;;;;;5072810;28;19969;-49
2024/04/03 09:20:53;;;;;;;;;;;14.00;99.90;;;;;;5070985;28;19920;-48
2024/04/03 09:23:19;;;;;;;;;;;14.00;99.90;;;;;;5071170;28;19919;-49
2024/04/03 09:25:44;;;;;;;;;;;14.00;99.90;;;;;;5067137;28;20947;-51
2024/04/03 09:28:10;;;;;;;;;;;14.00;99.90;;;;;;5068475;28;19917;-48
2024/04/03 09:30:40;;;;;;;;;;;14.00;99.90;;;;;;5068375;28;19912;-50
2024/04/03 09:33:06;;;;;;;;;;;14.00;99.90;;;;;;5068999;28;19912;-48
2024/04/03 09:35:32;;;;;;;;;;;14.00;99.90;;;;;;5066507;28;19927;-48
2024/04/03 09:37:58;;;;;;;;;;;13.90;99.90;;;;;;5070094;28;20062;-49
2024/04/03 09:40:25;;;;;;;;;;;14.00;99.90;;;;;;5068660;28;19917;-52
2024/04/03 09:42:57;;;;;;;;;;;14.00;99.90;;;;;;5064000;28;19912;-52
2024/04/03 09:45:26;;;;;;;;;;;14.00;99.90;;;;;;5064423;28;20277;-52
2024/04/03 09:47:56;;;;;;;;;;;14.00;99.90;;;;;;5067202;28;19995;-54
2024/04/03 09:50:21;;;;;;;;;;;14.00;99.90;;;;;;5071119;28;19916;-53
2024/04/03 09:52:47;;;;;;;;;;;14.00;99.90;;;;;;5067062;28;20441;-53
2024/04/03 09:55:13;;;;;;;;;;;14.00;99.90;;;;;;5074198;28;20359;-52
2024/04/03 09:57:39;;;;;;;;;;;14.00;99.90;;;;;;5075964;28;19973;-53
2024/04/03 10:00:06;;;;;;;;;;;14.00;99.90;;;;;;5075744;28;20384;-53
2024/04/03 10:02:31;;;;;;;;;;;14.00;99.90;;;;;;5058462;28;19952;-49
2024/04/03 10:04:57;;;;;;;;;;;14.00;99.90;;;;;;5071079;28;19966;-51
2024/04/03 10:07:26;;;;;;;;;;;14.00;99.90;;;;;;5069049;28;19913;-51
2024/04/03 10:09:51;;;;;;;;;;;14.00;99.90;;;;;;5066329;28;20280;-51
2024/04/03 10:12:19;;;;;;;;;;;14.00;99.90;;;;;;5069783;28;19973;-48
2024/04/03 10:14:45;;;;;;;;;;;14.00;99.90;;;;;;5069034;28;19909;-50
2024/04/03 10:17:18;;;;;;;;;;;14.10;99.90;;;;;;5066346;28;20001;-50
2024/04/03 10:19:43;;;;;;;;;;;14.10;99.90;;;;;;5066423;28;19913;-50
2024/04/03 10:22:14;;;;;;;;;;;14.10;99.90;;;;;;5065522;28;19924;-50
2024/04/03 10:24:42;;;;;;;;;;;14.10;99.90;;;;;;5064929;28;19913;-49
2024/04/03 10:27:07;;;;;;;;;;;14.10;99.90;;;;;;5067594;28;20042;-48
2024/04/03 10:29:33;;;;;;;;;;;14.10;99.90;;;;;;5071388;28;19951;-49
2024/04/03 10:31:58;;;;;;;;;;;14.10;99.90;;;;;;5064415;28;19908;-50
2024/04/03 10:34:24;;;;;;;;;;;14.10;99.90;;;;;;5068398;28;19920;-49
2024/04/03 10:36:49;;;;;;;;;;;14.10;99.90;;;;;;5065223;28;19951;-50
2024/04/03 10:39:15;;;;;;;;;;;14.00;99.90;;;;;;5073470;28;20007;-49
2024/04/03 10:41:42;;;;;;;;;;;14.00;99.90;;;;;;5074117;28;19909;-51
2024/04/03 10:44:11;;;;;;;;;;;14.10;99.90;;;;;;5073303;28;19920;-49
2024/04/03 10:46:36;;;;;;;;;;;14.00;99.90;;;;;;5073319;28;19912;-49
2024/04/03 10:49:02;;;;;;;;;;;14.10;99.90;;;;;;5072585;28;19924;-49
2024/04/03 10:51:28;;;;;;;;;;;14.10;99.90;;;;;;5066175;28;20377;-49
2024/04/03 10:53:56;;;;;;;;;;;14.10;99.90;;;;;;5067750;28;19919;-50
2024/04/03 10:56:26;;;;;;;;;;;14.10;99.90;;;;;;5068814;28;19967;-49
2024/04/03 10:58:53;;;;;;;;;;;14.10;99.90;;;;;;5068328;28;19912;-51
2024/04/03 11:01:18;;;;;;;;;;;14.10;99.90;;;;;;5068964;28;20298;-52
2024/04/03 11:03:45;;;;;;;;;;;14.10;99.90;;;;;;5073332;28;19917;-48
2024/04/03 11:06:11;;;;;;;;;;;14.10;99.90;;;;;;5072018;28;19977;-49
2024/04/03 11:08:37;;;;;;;;;;;14.10;99.90;;;;;;5073954;28;19912;-49
2024/04/03 11:11:03;;;;;;;;;;;14.10;99.90;;;;;;5074017;28;19922;-50
2024/04/03 11:13:28;;;;;;;;;;;14.10;99.90;;;;;;5074758;28;20339;-50
2024/04/03 11:15:54;;;;;;;;;;;14.10;99.90;;;;;;5074369;28;19912;-50
2024/04/03 11:18:19;;;;;;;;;;;14.10;99.90;;;;;;5074690;28;20303;-48
2024/04/03 11:20:45;;;;;;;;;;;14.20;99.90;;;;;;5073243;28;19924;-50
2024/04/03 11:23:10;;;;;;;;;;;14.20;99.90;;;;;;5070873;28;19919;-50
2024/04/03 11:25:36;;;;;;;;;;;14.20;99.90;;;;;;5072869;28;19948;-52
2024/04/03 11:28:03;;;;;;;;;;;14.10;99.90;;;;;;5071107;28;19993;-48
2024/04/03 11:30:29;;;;;;;;;;;14.20;99.90;;;;;;5072500;28;19909;-49
2024/04/03 11:32:55;;;;;;;;;;;14.20;99.90;;;;;;5073322;28;20292;-50
2024/04/03 11:35:21;;;;;;;;;;;14.10;99.90;;;;;;5069137;28;19916;-50
2024/04/03 11:37:47;;;;;;;;;;;14.20;99.90;;;;;;5067422;28;20368;-51
2024/04/03 11:40:12;;;;;;;;;;;14.20;99.90;;;;;;5069800;28;19947;-50
2024/04/03 11:42:38;;;;;;;;;;;14.20;99.90;;;;;;5077114;28;19947;-50
2024/04/03 11:45:07;;;;;;;;;;;14.20;99.90;;;;;;5074840;28;19912;-49
2024/04/03 11:47:32;;;;;;;;;;;14.20;99.90;;;;;;5075749;28;19975;-52
2024/04/03 11:50:01;;;;;;;;;;;14.20;99.90;;;;;;5070085;28;20404;-52
2024/04/03 11:52:27;;;;;;;;;;;14.20;99.90;;;;;;5074359;28;20306;-53
2024/04/03 11:54:53;;;;;;;;;;;14.20;99.90;;;;;;5073909;28;19952;-51
2024/04/03 11:57:19;;;;;;;;;;;14.20;99.90;;;;;;5077043;28;19917;-50
2024/04/03 11:59:44;;;;;;;;;;;14.20;99.90;;;;;;5059874;28;19977;-53
2024/04/03 12:02:10;;;;;;;;;;;14.20;99.90;;;;;;5063363;28;19912;-52
2024/04/03 12:04:35;;;;;;;;;;;14.20;99.90;;;;;;5059143;28;19913;-50
2024/04/03 12:07:01;;;;;;;;;;;14.20;99.90;;;;;;5073782;28;19912;-49
2024/04/03 12:09:27;;;;;;;;;;;14.20;99.90;;;;;;5066723;28;20242;-53
2024/04/03 12:11:52;;;;;;;;;;;14.20;99.90;;;;;;5074367;28;20296;-51
2024/04/03 12:14:18;;;;;;;;;;;14.20;99.90;;;;;;5076127;28;20271;-52
2024/04/03 12:16:44;;;;;;;;;;;14.20;99.90;;;;;;5062003;28;19913;-50
2024/04/03 12:21:53;;;;;;;;;;;14.30;99.90;;;;;;5068901;28;19916;-53
2024/04/03 12:24:19;;;;;;;;;;;14.30;99.90;;;;;;5069139;28;19912;-53
2024/04/03 12:26:45;;;;;;;;;;;14.30;99.90;;;;;;5069707;28;20394;-49
2024/04/03 12:29:12;;;;;;;;;;;14.30;99.90;;;;;;5068386;28;19916;-49
2024/04/03 12:31:37;;;;;;;;;;;14.30;99.90;;;;;;5069331;28;19912;-53
2024/04/03 12:34:06;;;;;;;;;;;14.30;99.90;;;;;;5068725;28;19912;-51
2024/04/03 12:36:32;;;;;;;;;;;14.30;99.90;;;;;;5070145;28;19916;-52
2024/04/03 12:38:57;;;;;;;;;;;14.30;99.90;;;;;;5060446;28;19912;-52
2024/04/03 12:41:23;;;;;;;;;;;14.30;99.90;;;;;;5067714;28;19947;-51
2024/04/03 12:43:48;;;;;;;;;;;14.30;99.90;;;;;;5064152;28;19912;-50
2024/04/03 12:46:14;;;;;;;;;;;14.30;99.90;;;;;;5067830;28;19913;-49
2024/04/03 12:48:42;;;;;;;;;;;14.30;99.90;;;;;;5068747;28;19912;-52
2024/04/03 12:51:08;;;;;;;;;;;14.30;99.90;;;;;;5070740;28;19909;-52
2024/04/03 12:53:33;;;;;;;;;;;14.30;99.90;;;;;;5065377;28;19923;-52
2024/04/03 12:56:01;;;;;;;;;;;14.30;99.90;;;;;;5063930;28;19917;-53
2024/04/03 12:58:27;;;;;;;;;;;14.30;99.90;;;;;;5067205;28;19916;-51
2024/04/03 13:00:53;;;;;;;;;;;14.40;99.90;;;;;;5069109;28;19974;-52
2024/04/03 13:03:18;;;;;;;;;;;14.40;99.90;;;;;;5071390;28;19917;-53
2024/04/03 13:05:50;;;;;;;;;;;14.30;99.90;;;;;;5065972;28;19916;-49
2024/04/03 13:08:16;;;;;;;;;;;14.40;99.90;;;;;;5068989;28;19916;-51
2024/04/03 13:10:42;;;;;;;;;;;14.40;99.90;;;;;;5071367;28;20387;-53
2024/04/03 13:13:07;;;;;;;;;;;14.40;99.90;;;;;;5066686;28;19917;-52
2024/04/03 13:15:33;;;;;;;;;;;14.40;99.90;;;;;;5068627;28;20061;-48
2024/04/03 13:17:59;;;;;;;;;;;14.40;99.90;;;;;;5067627;28;19923;-52
2024/04/03 13:20:24;;;;;;;;;;;14.40;99.90;;;;;;5067530;28;19941;-52
2024/04/03 13:22:56;;;;;;;;;;;14.40;99.90;;;;;;5067889;28;19960;-53
2024/04/03 13:25:25;;;;;;;;;;;14.40;99.90;;;;;;5073465;28;19908;-51
2024/04/03 13:27:51;;;;;;;;;;;14.40;99.90;;;;;;5070720;28;19924;-53
2024/04/03 13:30:17;;;;;;;;;;;14.40;99.90;;;;;;5059663;28;19916;-50
2024/04/03 13:32:42;;;;;;;;;;;14.40;99.90;;;;;;5063418;28;19932;-50
2024/04/03 13:35:08;;;;;;;;;;;14.40;99.90;;;;;;5073814;28;19912;-50
2024/04/03 13:37:37;;;;;;;;;;;14.40;99.90;;;;;;5075664;28;19913;-53
2024/04/03 13:40:03;;;;;;;;;;;14.40;99.90;;;;;;5071242;28;19913;-49
2024/04/03 13:42:29;;;;;;;;;;;14.40;99.90;;;;;;5072570;28;20466;-52
2024/04/03 13:44:55;;;;;;;;;;;14.40;99.90;;;;;;5062885;28;20360;-49
2024/04/03 13:47:20;;;;;;;;;;;14.40;99.90;;;;;;5064687;28;20376;-49
2024/04/03 13:49:46;;;;;;;;;;;14.40;99.90;;;;;;5064622;28;20448;-51
2024/04/03 13:52:14;;;;;;;;;;;14.40;99.90;;;;;;5066270;28;20371;-51
2024/04/03 13:54:40;;;;;;;;;;;14.40;99.90;;;;;;5066089;28;20007;-49
2024/04/03 13:57:06;;;;;;;;;;;14.40;99.90;;;;;;5063114;28;20035;-50
2024/04/03 13:59:32;;;;;;;;;;;14.40;99.90;;;;;;5064219;28;20054;-49
2024/04/03 14:01:57;;;;;;;;;;;14.40;99.90;;;;;;5063386;28;20003;-52
2024/04/03 14:04:23;;;;;;;;;;;14.40;99.90;;;;;;5061776;28;19960;-49
2024/04/03 14:06:49;;;;;;;;;;;14.40;99.90;;;;;;5066038;28;19912;-50
2024/04/03 14:09:16;;;;;;;;;;;14.40;99.90;;;;;;5062928;28;19913;-49
2024/04/03 14:11:42;;;;;;;;;;;14.40;99.90;;;;;;5070152;28;19926;-49
2024/04/03 14:14:07;;;;;;;;;;;14.40;99.90;;;;;;5074139;28;20350;-50
2024/04/03 14:16:33;;;;;;;;;;;14.40;99.90;;;;;;5066641;28;20311;-50